Maersk Dispatcher — XJAJ — position and weather

sailwx.info

Track history (hours):
 
Tides and Currents Weather Stations Pressure Air Temp Water Temp Dewpoint Dewpoint Depression Visibility Wind Speed Wind Dir Waves Ship Positions

Maersk Dispatcher

Last reported at 2017-Apr-29 16:56 UTC. Time now 2017-Apr-30 13:07 UTC.
Position N 47°32' W 052°30'.

Length 89 m; draft 7 m.

Type: Other ship. MMSI: 316013080.

Date/timePositionNaut miles runAvg speedWind from/ knotsBaromVisibWave heightAir tempDewpointWater temp
2017-Apr-29 16:56N 47°32' W 052°30'8 6.4
2017-Apr-29 15:41N 47°34' W 052°42'0 0.0
2017-Apr-29 15:29N 47°34' W 052°42'0 0.0
2017-Apr-29 14:50N 47°34' W 052°42'0 0.0
2017-Apr-29 14:23N 47°34' W 052°42'0 0.0
2017-Apr-29 13:23N 47°34' W 052°42'0 0.0
2017-Apr-29 12:59N 47°34' W 052°42'0 0.0
2017-Apr-29 12:23N 47°34' W 052°42'0 0.0
2017-Apr-29 11:56N 47°34' W 052°42'0 0.0
2017-Apr-29 11:26N 47°34' W 052°42'0 0.0
2017-Apr-29 10:56N 47°34' W 052°42'0 0.0
2017-Apr-29 10:26N 47°34' W 052°42'0 0.0
2017-Apr-29 09:56N 47°34' W 052°42'1 1.2
2017-Apr-29 09:28N 47°34' W 052°41'610.2
2017-Apr-29 08:56N 47°33' W 052°33'  
2017-Apr-25 01:52N 47°30' W 052°17'613.3
2017-Apr-25 01:26N 47°32' W 052°25'5 9.3
2017-Apr-25 00:56N 47°34' W 052°32'4 9.0
2017-Apr-25 00:31N 47°34' W 052°37'3 6.2
2017-Apr-25 00:00N 47°34' W 052°42'0 0.0
2017-Apr-24 23:29N 47°34' W 052°42'0 0.0
2017-Apr-24 22:55N 47°34' W 052°42'0 0.0
2017-Apr-24 22:22N 47°34' W 052°42'0 0.0
2017-Apr-24 21:58N 47°34' W 052°42'0 0.0
2017-Apr-24 21:25N 47°34' W 052°42'0 0.0
2017-Apr-24 20:49N 47°34' W 052°42'0 0.0
2017-Apr-24 20:25N 47°34' W 052°42'0 0.0
2017-Apr-24 19:49N 47°34' W 052°42'0 0.0
2017-Apr-24 19:25N 47°34' W 052°42'0 0.0
2017-Apr-24 18:55N 47°34' W 052°42'0 0.0
2017-Apr-24 18:25N 47°34' W 052°42'0 0.0
2017-Apr-24 17:55N 47°34' W 052°42'0 0.0
2017-Apr-24 17:25N 47°34' W 052°42'0 0.0
2017-Apr-24 16:58N 47°34' W 052°42'0 0.0
2017-Apr-24 16:28N 47°34' W 052°42'0 0.0
2017-Apr-24 15:55N 47°34' W 052°42'0 0.0
2017-Apr-24 13:07N 47°34' W 052°42'0 0.0
2017-Apr-24 12:55N 47°34' W 052°42'0 0.0
2017-Apr-24 12:28N 47°34' W 052°42'0 0.0
2017-Apr-24 11:52N 47°34' W 052°42'0 0.0
2017-Apr-24 11:28N 47°34' W 052°42'0 0.0
2017-Apr-24 05:46N 47°34' W 052°42'0 0.0
2017-Apr-24 05:19N 47°34' W 052°42'0 0.0
2017-Apr-24 04:25N 47°34' W 052°42'0 0.0
2017-Apr-24 03:55N 47°34' W 052°42'0 0.0
2017-Apr-24 03:25N 47°34' W 052°42'0 0.0
2017-Apr-24 02:55N 47°34' W 052°42'0 0.0
2017-Apr-24 02:25N 47°34' W 052°42'0 0.0
2017-Apr-24 01:58N 47°34' W 052°42'0 0.0
2017-Apr-24 01:25N 47°34' W 052°42'0 0.0
2017-Apr-24 00:58N 47°34' W 052°42'0 0.0
2017-Apr-24 00:22N 47°34' W 052°42'0 0.0
2017-Apr-23 23:58N 47°34' W 052°42'0 0.0
2017-Apr-23 23:28N 47°34' W 052°42'0 0.0
2017-Apr-23 22:58N 47°34' W 052°42'0 0.0
2017-Apr-23 22:10N 47°34' W 052°42'0 0.0
2017-Apr-23 20:10N 47°34' W 052°42'0 0.0
2017-Apr-23 19:46N 47°34' W 052°42'0 0.0
2017-Apr-23 19:28N 47°34' W 052°42'0 0.0
2017-Apr-23 18:58N 47°34' W 052°42'0 0.0
2017-Apr-23 16:28N 47°34' W 052°42'0 0.0
2017-Apr-23 15:34N 47°34' W 052°42'0 0.0
2017-Apr-23 15:13N 47°34' W 052°42'0 0.0
2017-Apr-23 14:55N 47°34' W 052°42'0 0.0
2017-Apr-23 14:25N 47°34' W 052°42'0 0.0
2017-Apr-23 13:22N 47°34' W 052°42'0 0.0
2017-Apr-23 12:55N 47°34' W 052°42'0 0.0
2017-Apr-23 12:28N 47°34' W 052°42'0 0.0
2017-Apr-23 11:55N 47°34' W 052°42'0 0.0
2017-Apr-23 11:22N 47°34' W 052°42'0 0.0
2017-Apr-23 10:43N 47°34' W 052°42'0 0.0
2017-Apr-23 10:27N 47°34' W 052°42'  
Track history (hours):
 
Tides and Currents Weather Stations Pressure Air Temp Water Temp Dewpoint Dewpoint Depression Visibility Wind Speed Wind Dir Waves Ship Positions

Maersk Dispatcher

Last reported at 2017-Apr-29 16:56 UTC. Time now 2017-Apr-30 13:07 UTC.
Position N 47°32' W 052°30'.

Length 89 m; draft 7 m.

Type: Other ship. MMSI: 316013080.

Date/timePositionNaut miles runAvg speedWind from/ knotsBaromVisibWave heightAir tempDewpointWater temp
2017-Apr-29 16:56N 47°32' W 052°30'8 6.4
2017-Apr-29 15:41N 47°34' W 052°42'0 0.0
2017-Apr-29 15:29N 47°34' W 052°42'0 0.0
2017-Apr-29 14:50N 47°34' W 052°42'0 0.0
2017-Apr-29 14:23N 47°34' W 052°42'0 0.0
2017-Apr-29 13:23N 47°34' W 052°42'0 0.0
2017-Apr-29 12:59N 47°34' W 052°42'0 0.0
2017-Apr-29 12:23N 47°34' W 052°42'0 0.0
2017-Apr-29 11:56N 47°34' W 052°42'0 0.0
2017-Apr-29 11:26N 47°34' W 052°42'0 0.0
2017-Apr-29 10:56N 47°34' W 052°42'0 0.0
2017-Apr-29 10:26N 47°34' W 052°42'0 0.0
2017-Apr-29 09:56N 47°34' W 052°42'1 1.2
2017-Apr-29 09:28N 47°34' W 052°41'610.2
2017-Apr-29 08:56N 47°33' W 052°33'  
2017-Apr-25 01:52N 47°30' W 052°17'613.3
2017-Apr-25 01:26N 47°32' W 052°25'5 9.3
2017-Apr-25 00:56N 47°34' W 052°32'4 9.0
2017-Apr-25 00:31N 47°34' W 052°37'3 6.2
2017-Apr-25 00:00N 47°34' W 052°42'0 0.0
2017-Apr-24 23:29N 47°34' W 052°42'0 0.0
2017-Apr-24 22:55N 47°34' W 052°42'0 0.0
2017-Apr-24 22:22N 47°34' W 052°42'0 0.0
2017-Apr-24 21:58N 47°34' W 052°42'0 0.0
2017-Apr-24 21:25N 47°34' W 052°42'0 0.0
2017-Apr-24 20:49N 47°34' W 052°42'0 0.0
2017-Apr-24 20:25N 47°34' W 052°42'0 0.0
2017-Apr-24 19:49N 47°34' W 052°42'0 0.0
2017-Apr-24 19:25N 47°34' W 052°42'0 0.0
2017-Apr-24 18:55N 47°34' W 052°42'0 0.0
2017-Apr-24 18:25N 47°34' W 052°42'0 0.0
2017-Apr-24 17:55N 47°34' W 052°42'0 0.0
2017-Apr-24 17:25N 47°34' W 052°42'0 0.0
2017-Apr-24 16:58N 47°34' W 052°42'0 0.0
2017-Apr-24 16:28N 47°34' W 052°42'0 0.0
2017-Apr-24 15:55N 47°34' W 052°42'0 0.0
2017-Apr-24 13:07N 47°34' W 052°42'0 0.0
2017-Apr-24 12:55N 47°34' W 052°42'0 0.0
2017-Apr-24 12:28N 47°34' W 052°42'0 0.0
2017-Apr-24 11:52N 47°34' W 052°42'0 0.0
2017-Apr-24 11:28N 47°34' W 052°42'0 0.0
2017-Apr-24 05:46N 47°34' W 052°42'0 0.0
2017-Apr-24 05:19N 47°34' W 052°42'0 0.0
2017-Apr-24 04:25N 47°34' W 052°42'0 0.0
2017-Apr-24 03:55N 47°34' W 052°42'0 0.0
2017-Apr-24 03:25N 47°34' W 052°42'0 0.0
2017-Apr-24 02:55N 47°34' W 052°42'0 0.0
2017-Apr-24 02:25N 47°34' W 052°42'0 0.0
2017-Apr-24 01:58N 47°34' W 052°42'0 0.0
2017-Apr-24 01:25N 47°34' W 052°42'0 0.0
2017-Apr-24 00:58N 47°34' W 052°42'0 0.0
2017-Apr-24 00:22N 47°34' W 052°42'0 0.0
2017-Apr-23 23:58N 47°34' W 052°42'0 0.0
2017-Apr-23 23:28N 47°34' W 052°42'0 0.0
2017-Apr-23 22:58N 47°34' W 052°42'0 0.0
2017-Apr-23 22:10N 47°34' W 052°42'0 0.0
2017-Apr-23 20:10N 47°34' W 052°42'0 0.0
2017-Apr-23 19:46N 47°34' W 052°42'0 0.0
2017-Apr-23 19:28N 47°34' W 052°42'0 0.0
2017-Apr-23 18:58N 47°34' W 052°42'0 0.0
2017-Apr-23 16:28N 47°34' W 052°42'0 0.0
2017-Apr-23 15:34N 47°34' W 052°42'0 0.0
2017-Apr-23 15:13N 47°34' W 052°42'0 0.0
2017-Apr-23 14:55N 47°34' W 052°42'0 0.0
2017-Apr-23 14:25N 47°34' W 052°42'0 0.0
2017-Apr-23 13:22N 47°34' W 052°42'0 0.0
2017-Apr-23 12:55N 47°34' W 052°42'0 0.0
2017-Apr-23 12:28N 47°34' W 052°42'0 0.0
2017-Apr-23 11:55N 47°34' W 052°42'0 0.0
2017-Apr-23 11:22N 47°34' W 052°42'0 0.0
2017-Apr-23 10:43N 47°34' W 052°42'0 0.0
2017-Apr-23 10:27N 47°34' W 052°42'  

Dump ship's entire track history